Cotter, Iowa
Current Conditions -  °F | °C
As of 7:35 AM on Thursday 18 Dec 2014 (Local Time) from KAWG Reporting Station
Overcast Overcast  
Wind Chill: 21°   Ceiling: 7500
Heat Index: 21°   Visibility: 10mi
Dew Point: 21°   Wind: 3mph
Humidity: 100%   Direction: 50°NE
Pressure: 30.3"   Gusts: NA
Location:  41.2636°N, 91.4145°W
Report Text: KAWG 181335Z AUTO 05003KT 10SM BKN075 OVC110 M06/M06 A3030 RMK AO2
Loading
Personal Weather Stations






























Interactive Weather Map New forecast layout! Learn more

10-Day Weather Forecast

Advertisements
Track Severe Weather on mobile